createdAt,value
2016-05-21T00:00:21.420Z,0
2016-05-21T00:01:21.281Z,0
2016-05-21T00:02:21.456Z,0
2016-05-21T00:03:21.475Z,0
2016-05-21T00:04:21.367Z,0
2016-05-21T00:05:21.370Z,0
2016-05-21T00:06:21.404Z,0
2016-05-21T00:07:21.580Z,0
2016-05-21T00:08:21.457Z,0
2016-05-21T00:09:21.631Z,0
2016-05-21T00:10:21.649Z,0
2016-05-21T00:11:21.883Z,0
2016-05-21T00:12:21.574Z,0
2016-05-21T00:13:21.779Z,0
2016-05-21T00:14:21.813Z,0
2016-05-21T00:15:21.863Z,0
2016-05-21T00:16:21.905Z,0
2016-05-21T00:17:21.929Z,0
2016-05-21T00:18:21.954Z,0
2016-05-21T00:19:21.821Z,0
2016-05-21T00:20:22.016Z,0
2016-05-21T00:21:22.038Z,0
2016-05-21T00:22:22.060Z,0
2016-05-21T00:23:22.095Z,0
2016-05-21T00:24:22.132Z,0
2016-05-21T00:25:21.996Z,0
2016-05-21T00:26:23.187Z,0
2016-05-21T00:27:22.222Z,0
2016-05-21T00:28:22.225Z,0
2016-05-21T00:29:22.244Z,0
2016-05-21T00:30:21.966Z,0
2016-05-21T00:31:22.142Z,0
2016-05-21T00:32:22.332Z,0
2016-05-21T00:33:22.350Z,0
2016-05-21T00:34:22.368Z,0
2016-05-21T00:35:22.403Z,0
2016-05-21T00:36:22.420Z,0
2016-05-21T00:37:22.454Z,0
2016-05-21T00:38:22.473Z,0
2016-05-21T00:39:22.491Z,0
2016-05-21T00:40:22.541Z,0
2016-05-21T00:41:22.622Z,0
2016-05-21T00:42:22.561Z,0
2016-05-21T00:43:22.595Z,0
2016-05-21T00:44:22.629Z,0
2016-05-21T00:45:22.648Z,0
2016-05-21T00:46:22.667Z,0
2016-05-21T00:47:22.700Z,0
2016-05-21T00:48:22.563Z,0
2016-05-21T00:49:22.752Z,0
2016-05-21T00:50:22.614Z,0
2016-05-21T00:51:22.805Z,0
2016-05-21T00:52:22.823Z,0
2016-05-21T00:53:22.685Z,0
2016-05-21T00:54:22.874Z,0
2016-05-21T00:55:22.893Z,0
2016-05-21T00:56:22.943Z,0
2016-05-21T00:57:22.945Z,0
2016-05-21T00:58:22.979Z,0
2016-05-21T00:59:22.998Z,0
2016-05-21T01:00:22.860Z,0
2016-05-21T01:01:23.035Z,0
2016-05-21T01:02:23.068Z,0
2016-05-21T01:03:22.931Z,0
2016-05-21T01:04:22.793Z,0
2016-05-21T01:05:23.154Z,0
2016-05-21T01:06:23.173Z,0
2016-05-21T01:07:22.739Z,0
2016-05-21T01:08:23.225Z,0
2016-05-21T01:09:23.244Z,0
2016-05-21T01:10:23.277Z,0
2016-05-21T01:11:23.655Z,0
2016-05-21T01:12:23.158Z,0
2016-05-21T01:13:23.332Z,0
2016-05-21T01:14:23.211Z,0
2016-05-21T01:15:23.385Z,0
2016-05-21T01:16:23.419Z,0
2016-05-21T01:17:23.437Z,0
2016-05-21T01:18:23.299Z,0
2016-05-21T01:19:23.317Z,0
2016-05-21T01:20:23.508Z,0
2016-05-21T01:21:23.541Z,0
2016-05-21T01:22:23.560Z,0
2016-05-21T01:23:23.594Z,0
2016-05-21T01:24:24.424Z,0
2016-05-21T01:25:23.630Z,0
2016-05-21T01:26:23.914Z,0
2016-05-21T01:27:23.682Z,0
2016-05-21T01:28:23.716Z,0
2016-05-21T01:29:23.719Z,0
2016-05-21T01:30:23.597Z,0
2016-05-21T01:31:23.771Z,0
2016-05-21T01:32:23.806Z,0
2016-05-21T01:33:23.824Z,0
2016-05-21T01:34:23.686Z,0
2016-05-21T01:35:23.876Z,0
2016-05-21T01:36:23.910Z,0
2016-05-21T01:37:23.772Z,0
2016-05-21T01:38:23.962Z,0
2016-05-21T01:39:23.981Z,0
2016-05-21T01:40:23.998Z,0
2016-05-21T01:41:23.986Z,0
2016-05-21T01:42:24.051Z,0
2016-05-21T01:43:24.086Z,0
2016-05-21T01:44:24.104Z,0
2016-05-21T01:45:24.122Z,0
2016-05-21T01:46:24.140Z,0
2016-05-21T01:47:24.174Z,0
2016-05-21T01:48:23.880Z,0
2016-05-21T01:49:24.070Z,0
2016-05-21T01:50:23.932Z,0
2016-05-21T01:51:24.278Z,0
2016-05-21T01:52:24.296Z,0
2016-05-21T01:53:24.330Z,0
2016-05-21T01:54:24.349Z,0
2016-05-21T01:55:24.368Z,0
2016-05-21T01:56:24.839Z,0
2016-05-21T01:57:24.419Z,0
2016-05-21T01:58:24.438Z,0
2016-05-21T01:59:24.316Z,0
2016-05-21T02:00:24.490Z,0
2016-05-21T02:01:24.524Z,0
2016-05-21T02:02:24.542Z,0
2016-05-21T02:03:24.420Z,0
2016-05-21T02:04:24.438Z,0
2016-05-21T02:05:24.472Z,0
2016-05-21T02:06:24.647Z,0
2016-05-21T02:07:24.665Z,0
2016-05-21T02:08:24.683Z,0
2016-05-21T02:09:24.717Z,0
2016-05-21T02:10:24.751Z,0
2016-05-21T02:11:25.348Z,0
2016-05-21T02:12:24.648Z,0
2016-05-21T02:13:24.806Z,0
2016-05-21T02:14:24.840Z,0
2016-05-21T02:15:24.859Z,0
2016-05-21T02:16:24.892Z,0
2016-05-21T02:17:24.755Z,0
2016-05-21T02:18:24.929Z,0
2016-05-21T02:19:24.963Z,0
2016-05-21T02:20:24.981Z,0
2016-05-21T02:21:25.016Z,0
2016-05-21T02:22:24.721Z,0
2016-05-21T02:23:24.911Z,0
2016-05-21T02:24:25.086Z,0
2016-05-21T02:25:25.105Z,0
2016-05-21T02:26:25.247Z,0
2016-05-21T02:27:25.156Z,0
2016-05-21T02:28:25.035Z,0
2016-05-21T02:29:25.052Z,0
2016-05-21T02:30:25.243Z,0
2016-05-21T02:31:25.261Z,0
2016-05-21T02:32:25.295Z,0
2016-05-21T02:33:25.298Z,0
2016-05-21T02:34:25.331Z,0
2016-05-21T02:35:25.194Z,0
2016-05-21T02:36:25.383Z,0
2016-05-21T02:37:25.402Z,0
2016-05-21T02:38:25.437Z,0
2016-05-21T02:39:25.454Z,0
2016-05-21T02:40:25.332Z,0
2016-05-21T02:41:25.194Z,0
2016-05-21T02:42:25.540Z,0
2016-05-21T02:43:25.543Z,0
2016-05-21T02:44:25.577Z,0
2016-05-21T02:45:25.455Z,0
2016-05-21T02:46:25.629Z,0
2016-05-21T02:47:25.647Z,0
2016-05-21T02:48:25.681Z,0
2016-05-21T02:49:25.544Z,0
2016-05-21T02:50:25.734Z,0
2016-05-21T02:51:25.689Z,0
2016-05-21T02:52:25.817Z,0
2016-05-21T02:53:25.664Z,0
2016-05-21T02:54:25.901Z,0
2016-05-21T02:55:26.169Z,0
2016-05-21T02:56:25.735Z,0
2016-05-21T02:57:25.893Z,0
2016-05-21T02:58:25.927Z,0
2016-05-21T02:59:25.946Z,0
2016-05-21T03:00:25.824Z,0
2016-05-21T03:01:25.982Z,0
2016-05-21T03:02:26.031Z,0
2016-05-21T03:03:25.926Z,0
2016-05-21T03:04:26.099Z,0
2016-05-21T03:05:26.102Z,0
2016-05-21T03:06:25.964Z,0
2016-05-21T03:07:26.154Z,0
2016-05-21T03:08:25.860Z,0
2016-05-21T03:09:26.051Z,0
2016-05-21T03:10:26.209Z,0
2016-05-21T03:11:26.103Z,0
2016-05-21T03:12:26.262Z,0
2016-05-21T03:13:26.295Z,0
2016-05-21T03:14:26.330Z,4
2016-05-21T03:15:26.192Z,4
2016-05-21T03:16:26.210Z,4
2016-05-21T03:17:26.244Z,0
2016-05-21T03:18:26.419Z,4
2016-05-21T03:19:26.436Z,4
2016-05-21T03:20:26.315Z,4
2016-05-21T03:21:26.333Z,8
2016-05-21T03:22:26.523Z,4
2016-05-21T03:23:26.542Z,8
2016-05-21T03:24:26.575Z,8
2016-05-21T03:25:26.438Z,12
2016-05-21T03:26:26.674Z,12
2016-05-21T03:27:26.491Z,16
2016-05-21T03:28:26.664Z,20
2016-05-21T03:29:26.541Z,20
2016-05-21T03:30:26.716Z,24
2016-05-21T03:31:26.735Z,24
2016-05-21T03:32:26.612Z,28
2016-05-21T03:33:26.787Z,28
2016-05-21T03:34:26.805Z,32
2016-05-21T03:35:26.840Z,40
2016-05-21T03:36:26.873Z,40
2016-05-21T03:37:26.735Z,44
2016-05-21T03:38:26.910Z,52
2016-05-21T03:39:26.943Z,56
2016-05-21T03:40:26.962Z,60
2016-05-21T03:41:27.293Z,64
2016-05-21T03:42:26.701Z,68
2016-05-21T03:43:27.033Z,80
2016-05-21T03:44:27.067Z,92
2016-05-21T03:45:27.084Z,100
2016-05-21T03:46:26.962Z,112
2016-05-21T03:47:26.981Z,128
2016-05-21T03:48:27.156Z,140
2016-05-21T03:49:27.033Z,152
2016-05-21T03:50:27.223Z,168
2016-05-21T03:51:27.242Z,188
2016-05-21T03:52:27.103Z,200
2016-05-21T03:53:27.294Z,212
2016-05-21T03:54:27.313Z,228
2016-05-21T03:55:27.346Z,244
2016-05-21T03:56:27.568Z,264
2016-05-21T03:57:27.383Z,284
2016-05-21T03:58:27.417Z,308
2016-05-21T03:59:27.435Z,328
2016-05-21T04:00:27.454Z,348
2016-05-21T04:01:27.315Z,372
2016-05-21T04:02:27.521Z,392
2016-05-21T04:03:27.383Z,420
2016-05-21T04:04:27.402Z,448
2016-05-21T04:05:27.576Z,476
2016-05-21T04:06:27.610Z,500
2016-05-21T04:07:27.473Z,524
2016-05-21T04:08:27.506Z,548
2016-05-21T04:09:27.681Z,580
2016-05-21T04:10:27.715Z,612
2016-05-21T04:11:27.420Z,652
2016-05-21T04:12:27.611Z,692
2016-05-21T04:13:27.785Z,740
2016-05-21T04:14:27.804Z,784
2016-05-21T04:15:27.823Z,808
2016-05-21T04:16:27.872Z,808
2016-05-21T04:17:27.875Z,812
2016-05-21T04:18:27.752Z,840
2016-05-21T04:19:27.926Z,900
2016-05-21T04:20:27.961Z,984
2016-05-21T04:21:27.979Z,1076
2016-05-21T04:22:27.997Z,1168
2016-05-21T04:23:28.031Z,1232
2016-05-21T04:24:27.908Z,1260
2016-05-21T04:25:28.068Z,1308
2016-05-21T04:26:28.101Z,1380
2016-05-21T04:27:28.119Z,1452
2016-05-21T04:28:28.154Z,1500
2016-05-21T04:29:28.172Z,1532
2016-05-21T04:30:28.050Z,1560
2016-05-21T04:31:28.224Z,1592
2016-05-21T04:32:28.258Z,1628
2016-05-21T04:33:28.120Z,1672
2016-05-21T04:34:28.310Z,1736
2016-05-21T04:35:28.329Z,1804
2016-05-21T04:36:28.190Z,1876
2016-05-21T04:37:28.225Z,1964
2016-05-21T04:38:28.399Z,2064
2016-05-21T04:39:28.418Z,2168
2016-05-21T04:40:28.437Z,2272
2016-05-21T04:41:28.548Z,2352
2016-05-21T04:42:28.488Z,2408
2016-05-21T04:43:28.522Z,2452
2016-05-21T04:44:28.556Z,2476
2016-05-21T04:45:28.575Z,2468
2016-05-21T04:46:28.437Z,2456
2016-05-21T04:47:28.470Z,2448
2016-05-21T04:48:28.333Z,2444
2016-05-21T04:49:28.664Z,2416
2016-05-21T04:50:28.698Z,2400
2016-05-21T04:51:28.559Z,2384
2016-05-21T04:52:28.594Z,2356
2016-05-21T04:53:28.767Z,2344
2016-05-21T04:54:28.786Z,2336
2016-05-21T04:55:28.820Z,2320
2016-05-21T04:56:28.698Z,2292
2016-05-21T04:57:28.716Z,2272
2016-05-21T04:58:28.890Z,2232
2016-05-21T04:59:28.909Z,2252
2016-05-21T05:00:28.786Z,2260
2016-05-21T05:01:28.977Z,2280
2016-05-21T05:02:28.979Z,2312
2016-05-21T05:03:29.013Z,2348
2016-05-21T05:04:28.891Z,2360
2016-05-21T05:05:29.066Z,2368
2016-05-21T05:06:29.084Z,2408
2016-05-21T05:07:29.118Z,2484
2016-05-21T05:08:29.136Z,2580
2016-05-21T05:09:29.171Z,2676
2016-05-21T05:10:29.048Z,2772
2016-05-21T05:11:29.441Z,2868
2016-05-21T05:12:29.101Z,2968
2016-05-21T05:13:29.275Z,3080
2016-05-21T05:14:29.293Z,3188
2016-05-21T05:15:29.327Z,3296
2016-05-21T05:16:29.346Z,3416
2016-05-21T05:17:29.364Z,3548
2016-05-21T05:18:29.242Z,3724
2016-05-21T05:19:29.416Z,3804
2016-05-21T05:20:29.434Z,3856
2016-05-21T05:21:29.312Z,3924
2016-05-21T05:22:29.502Z,3944
2016-05-21T05:23:29.520Z,3992
2016-05-21T05:24:29.601Z,4216
2016-05-21T05:25:29.572Z,4936
2016-05-21T05:26:29.325Z,6296
2016-05-21T05:27:29.469Z,6948
2016-05-21T05:28:29.643Z,6220
2016-05-21T05:29:29.678Z,6604
2016-05-21T05:30:29.696Z,8016
2016-05-21T05:31:29.729Z,7812
2016-05-21T05:32:29.747Z,6848
2016-05-21T05:33:29.625Z,6164
2016-05-21T05:34:29.800Z,5684
2016-05-21T05:35:29.818Z,5736
2016-05-21T05:36:29.853Z,8220
2016-05-21T05:37:29.714Z,8592
2016-05-21T05:38:29.904Z,8964
2016-05-21T05:39:29.923Z,8620
2016-05-21T05:40:29.957Z,7652
2016-05-21T05:41:30.115Z,8284
2016-05-21T05:42:30.009Z,10000
2016-05-21T05:43:30.043Z,9132
2016-05-21T05:44:30.062Z,7736
2016-05-21T05:45:30.079Z,8860
2016-05-21T05:46:30.114Z,9696
2016-05-21T05:47:30.147Z,9008
2016-05-21T05:48:30.025Z,9260
2016-05-21T05:49:30.184Z,9588
2016-05-21T05:50:30.218Z,9568
2016-05-21T05:51:30.236Z,10248
2016-05-21T05:52:30.114Z,10736
2016-05-21T05:53:30.289Z,11420
2016-05-21T05:54:30.166Z,12136
2016-05-21T05:55:30.341Z,11404
2016-05-21T05:56:30.734Z,9052
2016-05-21T05:57:30.394Z,9220
2016-05-21T05:58:30.427Z,8312
2016-05-21T05:59:30.305Z,8144
2016-05-21T06:00:30.479Z,8092
2016-05-21T06:01:30.513Z,8020
2016-05-21T06:02:30.375Z,7824
2016-05-21T06:03:30.566Z,6508
2016-05-21T06:04:30.600Z,5956
2016-05-21T06:05:30.618Z,7932
2016-05-21T06:06:30.652Z,8164
2016-05-21T06:07:30.670Z,8328
2016-05-21T06:08:30.548Z,7016
2016-05-21T06:09:30.722Z,6616
2016-05-21T06:10:30.757Z,6788
2016-05-21T06:11:30.477Z,6748
2016-05-21T06:12:30.809Z,5296
2016-05-21T06:13:30.671Z,6252
2016-05-21T06:14:30.704Z,6984
2016-05-21T06:15:30.879Z,6200
2016-05-21T06:16:30.913Z,5876
2016-05-21T06:17:30.931Z,5784
2016-05-21T06:18:30.965Z,5788
2016-05-21T06:19:30.687Z,5344
2016-05-21T06:20:31.017Z,5680
2016-05-21T06:21:30.895Z,6188
2016-05-21T06:22:31.086Z,6632
2016-05-21T06:23:31.104Z,7024
2016-05-21T06:24:31.122Z,7184
2016-05-21T06:25:31.000Z,6916
2016-05-21T06:26:31.362Z,7200
2016-05-21T06:27:31.208Z,9392
2016-05-21T06:28:31.086Z,9504
2016-05-21T06:29:31.261Z,10848
2016-05-21T06:30:31.294Z,10668
2016-05-21T06:31:31.156Z,8416
2016-05-21T06:32:31.330Z,9304
2016-05-21T06:33:31.365Z,10256
2016-05-21T06:34:31.399Z,12316
2016-05-21T06:35:31.433Z,13280
2016-05-21T06:36:31.483Z,13112
2016-05-21T06:37:31.485Z,12664
2016-05-21T06:38:31.207Z,11480
2016-05-21T06:39:31.382Z,12860
2016-05-21T06:40:31.572Z,10732
2016-05-21T06:41:31.589Z,10724
2016-05-21T06:42:31.624Z,10496
2016-05-21T06:43:31.642Z,10504
2016-05-21T06:44:31.520Z,9148
2016-05-21T06:45:31.553Z,9452
2016-05-21T06:46:31.728Z,11200
2016-05-21T06:47:31.762Z,9924
2016-05-21T06:48:31.468Z,10616
2016-05-21T06:49:31.815Z,10724
2016-05-21T06:50:31.848Z,10932
2016-05-21T06:51:31.867Z,10720
2016-05-21T06:52:31.884Z,12648
2016-05-21T06:53:31.919Z,13420
2016-05-21T06:54:31.953Z,13996
2016-05-21T06:55:31.971Z,16196
2016-05-21T06:56:31.895Z,16928
2016-05-21T06:57:32.023Z,14160
2016-05-21T06:58:32.058Z,14712
2016-05-21T06:59:32.091Z,14440
2016-05-21T07:00:32.109Z,15560
2016-05-21T07:01:32.144Z,12908
2016-05-21T07:02:32.005Z,14700
2016-05-21T07:03:32.196Z,10824
2016-05-21T07:04:31.933Z,11980
2016-05-21T07:05:32.248Z,10936
2016-05-21T07:06:32.282Z,18112
2016-05-21T07:07:31.988Z,19456
2016-05-21T07:08:32.350Z,12588
2016-05-21T07:09:32.368Z,7368
2016-05-21T07:10:32.385Z,6676
2016-05-21T07:11:32.796Z,7396
2016-05-21T07:12:32.126Z,6968
2016-05-21T07:13:32.473Z,6440
2016-05-21T07:14:32.507Z,6852
2016-05-21T07:15:32.556Z,10548
2016-05-21T07:16:32.246Z,7728
2016-05-21T07:17:32.593Z,13952
2016-05-21T07:18:32.612Z,7740
2016-05-21T07:19:32.645Z,6936
2016-05-21T07:20:32.507Z,6396
2016-05-21T07:21:32.557Z,6588
2016-05-21T07:22:32.715Z,9040
2016-05-21T07:23:32.750Z,7612
2016-05-21T07:24:32.611Z,7092
2016-05-21T07:25:32.802Z,6760
2016-05-21T07:26:33.586Z,13320
2016-05-21T07:27:32.853Z,11708
2016-05-21T07:28:32.889Z,8020
2016-05-21T07:29:32.766Z,6376
2016-05-21T07:30:32.940Z,6240
2016-05-21T07:31:32.818Z,6692
2016-05-21T07:32:32.992Z,6596
2016-05-21T07:33:33.042Z,10140
2016-05-21T07:34:33.060Z,4332
2016-05-21T07:35:33.078Z,3308
2016-05-21T07:36:33.128Z,2960
2016-05-21T07:37:33.380Z,2640
2016-05-21T07:38:33.180Z,2540
2016-05-21T07:39:33.183Z,2520
2016-05-21T07:40:33.077Z,2584
2016-05-21T07:41:33.048Z,3820
2016-05-21T07:42:33.285Z,6644
2016-05-21T07:43:33.304Z,3724
2016-05-21T07:44:33.181Z,3880
2016-05-21T07:45:33.215Z,3976
2016-05-21T07:46:33.249Z,4240
2016-05-21T07:47:33.424Z,4228
2016-05-21T07:48:33.457Z,6004
2016-05-21T07:49:33.320Z,5132
2016-05-21T07:50:33.494Z,5048
2016-05-21T07:51:33.543Z,4968
2016-05-21T07:52:33.561Z,4980
2016-05-21T07:53:33.581Z,5580
2016-05-21T07:54:33.614Z,7168
2016-05-21T07:55:33.648Z,6436
2016-05-21T07:56:33.526Z,9396
2016-05-21T07:57:33.700Z,6096
2016-05-21T07:58:33.406Z,5772
2016-05-21T07:59:33.737Z,5636
2016-05-21T08:00:33.631Z,5516
2016-05-21T08:01:33.805Z,6376
2016-05-21T08:02:33.683Z,6616
2016-05-21T08:03:33.857Z,6932
2016-05-21T08:04:33.735Z,7400
2016-05-21T08:05:33.784Z,8468
2016-05-21T08:06:33.975Z,6528
2016-05-21T08:07:33.821Z,7856
2016-05-21T08:08:33.996Z,6712
2016-05-21T08:09:33.874Z,6396
2016-05-21T08:10:34.063Z,6332
2016-05-21T08:11:33.769Z,6492
2016-05-21T08:12:34.100Z,6868
2016-05-21T08:13:34.134Z,7040
2016-05-21T08:14:34.169Z,7160
2016-05-21T08:15:34.201Z,7144
2016-05-21T08:16:34.064Z,7764
2016-05-21T08:17:34.098Z,8588
2016-05-21T08:18:34.132Z,8140
2016-05-21T08:19:34.307Z,8256
2016-05-21T08:20:34.184Z,8640
2016-05-21T08:21:34.218Z,8180
2016-05-21T08:22:34.237Z,7904
2016-05-21T08:23:34.411Z,7636
2016-05-21T08:24:34.304Z,7404
2016-05-21T08:25:34.307Z,7948
2016-05-21T08:26:34.684Z,8108
2016-05-21T08:27:34.531Z,8032
2016-05-21T08:28:34.581Z,7712
2016-05-21T08:29:34.428Z,7388
2016-05-21T08:30:34.633Z,7676
2016-05-21T08:31:34.636Z,7712
2016-05-21T08:32:34.513Z,7852
2016-05-21T08:33:34.703Z,7852
2016-05-21T08:34:34.753Z,7488
2016-05-21T08:35:34.756Z,6848
2016-05-21T08:36:34.790Z,6452
2016-05-21T08:37:34.808Z,5784
2016-05-21T08:38:34.702Z,5228
2016-05-21T08:39:34.860Z,4948
2016-05-21T08:40:34.894Z,4964
2016-05-21T08:41:35.225Z,4812
2016-05-21T08:42:34.790Z,4776
2016-05-21T08:43:34.824Z,5164
2016-05-21T08:44:34.843Z,5492
2016-05-21T08:45:35.032Z,5784
2016-05-21T08:46:35.066Z,5680
2016-05-21T08:47:34.929Z,5184
2016-05-21T08:48:35.119Z,5044
2016-05-21T08:49:34.981Z,5600
2016-05-21T08:50:35.187Z,5872
2016-05-21T08:51:35.220Z,5588
2016-05-21T08:52:35.067Z,5568
2016-05-21T08:53:35.257Z,6016
2016-05-21T08:54:35.291Z,6332
2016-05-21T08:55:35.153Z,6164
2016-05-21T08:56:36.031Z,6584
2016-05-21T08:57:35.378Z,6924
2016-05-21T08:58:35.396Z,7096
2016-05-21T08:59:35.429Z,6704
2016-05-21T09:00:35.464Z,6100
2016-05-21T09:01:35.325Z,5716
2016-05-21T09:02:35.517Z,5696
2016-05-21T09:03:35.378Z,5452
2016-05-21T09:04:35.411Z,5288
2016-05-21T09:05:35.603Z,5360
2016-05-21T09:06:35.620Z,5448
2016-05-21T09:07:35.498Z,6052
2016-05-21T09:08:35.673Z,6128
2016-05-21T09:09:35.707Z,5684
2016-05-21T09:10:35.725Z,5628
2016-05-21T09:11:35.634Z,5620
2016-05-21T09:12:35.793Z,5464
2016-05-21T09:13:35.655Z,5812
2016-05-21T09:14:35.845Z,5736
2016-05-21T09:15:35.722Z,5648
2016-05-21T09:16:35.897Z,5336
2016-05-21T09:17:35.969Z,5128
2016-05-21T09:18:36.009Z,5320
2016-05-21T09:19:36.063Z,5616
2016-05-21T09:20:36.103Z,5808
2016-05-21T09:21:36.174Z,5776
2016-05-21T09:22:36.183Z,5704
2016-05-21T09:23:36.240Z,5668
2016-05-21T09:24:36.251Z,5500
2016-05-21T09:25:36.293Z,5644
2016-05-21T09:26:36.303Z,5196
2016-05-21T09:27:36.198Z,5336
2016-05-21T09:28:36.391Z,5232
2016-05-21T09:29:36.412Z,4972
2016-05-21T09:30:36.449Z,5480
2016-05-21T09:31:36.173Z,5276
2016-05-21T09:32:36.506Z,4968
2016-05-21T09:33:36.540Z,5008
2016-05-21T09:34:36.420Z,5396
2016-05-21T09:35:36.610Z,5608
2016-05-21T09:36:36.474Z,5112
2016-05-21T09:37:36.649Z,4872
2016-05-21T09:38:36.684Z,4532
2016-05-21T09:39:36.592Z,4528
2016-05-21T09:40:36.736Z,4468
2016-05-21T09:41:36.990Z,4532
2016-05-21T09:42:36.790Z,4824
2016-05-21T09:43:36.823Z,5028
2016-05-21T09:44:36.856Z,5272
2016-05-21T09:45:36.875Z,5420
2016-05-21T09:46:36.909Z,5564
2016-05-21T09:47:36.943Z,5496
2016-05-21T09:48:36.806Z,5640
2016-05-21T09:49:36.994Z,5488
2016-05-21T09:50:37.029Z,5676
2016-05-21T09:51:37.063Z,5680
2016-05-21T09:52:36.925Z,5520
2016-05-21T09:53:36.958Z,5068
2016-05-21T09:54:37.164Z,4896
2016-05-21T09:55:37.167Z,5116
2016-05-21T09:56:37.716Z,4820
2016-05-21T09:57:37.219Z,5216
2016-05-21T09:58:37.238Z,5280
2016-05-21T09:59:37.272Z,5400
2016-05-21T10:00:37.305Z,5420
2016-05-21T10:01:37.340Z,5608
2016-05-21T10:02:37.218Z,5908
2016-05-21T10:03:37.392Z,5876
2016-05-21T10:04:37.410Z,5736
2016-05-21T10:05:37.444Z,5324
2016-05-21T10:06:37.322Z,5408
2016-05-21T10:07:37.512Z,4880
2016-05-21T10:08:37.530Z,4332
2016-05-21T10:09:37.408Z,4004
2016-05-21T10:10:37.582Z,3736
2016-05-21T10:11:37.929Z,4304
2016-05-21T10:12:37.651Z,4648
2016-05-21T10:13:37.684Z,4600
2016-05-21T10:14:37.687Z,4792
2016-05-21T10:15:37.720Z,4816
2016-05-21T10:16:37.599Z,5076
2016-05-21T10:17:37.773Z,5852
2016-05-21T10:18:37.494Z,6252
2016-05-21T10:19:37.825Z,5816
2016-05-21T10:20:37.845Z,5804
2016-05-21T10:21:37.894Z,5392
2016-05-21T10:22:37.912Z,5488
2016-05-21T10:23:37.946Z,5468
2016-05-21T10:24:37.980Z,5396
2016-05-21T10:25:37.997Z,5452
2016-05-21T10:26:38.782Z,4916
2016-05-21T10:27:38.050Z,4720
2016-05-21T10:28:38.100Z,4744
2016-05-21T10:29:38.118Z,4540
2016-05-21T10:30:38.136Z,4356
2016-05-21T10:31:38.171Z,4132
2016-05-21T10:32:38.205Z,4060
2016-05-21T10:33:38.066Z,4632
2016-05-21T10:34:38.241Z,4908
2016-05-21T10:35:38.275Z,4764
2016-05-21T10:36:38.310Z,5060
2016-05-21T10:37:38.343Z,5172
2016-05-21T10:38:38.205Z,5360
2016-05-21T10:39:38.396Z,5040
2016-05-21T10:40:38.429Z,4840
2016-05-21T10:41:38.525Z,4840
2016-05-21T10:42:38.481Z,4944
2016-05-21T10:43:38.499Z,4916
2016-05-21T10:44:38.534Z,4640
2016-05-21T10:45:38.551Z,4252
2016-05-21T10:46:38.586Z,4340
2016-05-21T10:47:38.604Z,4392
2016-05-21T10:48:38.638Z,4304
2016-05-21T10:49:38.515Z,4388
2016-05-21T10:50:38.690Z,4428
2016-05-21T10:51:38.740Z,4168
2016-05-21T10:52:38.759Z,3516
2016-05-21T10:53:38.792Z,2988
2016-05-21T10:54:38.811Z,2692
2016-05-21T10:55:38.845Z,2520
2016-05-21T10:56:38.723Z,2560
2016-05-21T10:57:38.896Z,3028
2016-05-21T10:58:38.915Z,3912
2016-05-21T10:59:38.949Z,4980
2016-05-21T11:00:38.827Z,5440
2016-05-21T11:01:39.001Z,5168
2016-05-21T11:02:39.036Z,4532
2016-05-21T11:03:38.897Z,4252
2016-05-21T11:04:39.087Z,3784
2016-05-21T11:05:39.121Z,3608
2016-05-21T11:06:39.140Z,3456
2016-05-21T11:07:39.174Z,3612
2016-05-21T11:08:39.191Z,4028
2016-05-21T11:09:39.069Z,4464
2016-05-21T11:10:39.260Z,4712
2016-05-21T11:11:39.294Z,4752
2016-05-21T11:12:39.171Z,4356
2016-05-21T11:13:39.190Z,4124
2016-05-21T11:14:39.380Z,3476
2016-05-21T11:15:39.398Z,3296
2016-05-21T11:16:39.432Z,3576
2016-05-21T11:17:39.466Z,3892
2016-05-21T11:18:39.484Z,3816
2016-05-21T11:19:39.503Z,3648
2016-05-21T11:20:39.537Z,3740
2016-05-21T11:21:39.570Z,4064
2016-05-21T11:22:39.604Z,4260
2016-05-21T11:23:39.467Z,4200
2016-05-21T11:24:39.656Z,4176
2016-05-21T11:25:39.534Z,4148
2016-05-21T11:26:39.411Z,4096
2016-05-21T11:27:39.728Z,4396
2016-05-21T11:28:39.761Z,4516
2016-05-21T11:29:39.795Z,4612
2016-05-21T11:30:39.829Z,4656
2016-05-21T11:31:39.535Z,5000
2016-05-21T11:32:39.553Z,5108
2016-05-21T11:33:39.900Z,5244
2016-05-21T11:34:39.933Z,5168
2016-05-21T11:35:39.952Z,4824
2016-05-21T11:36:39.986Z,4832
2016-05-21T11:37:39.864Z,4580
2016-05-21T11:38:40.038Z,4676
2016-05-21T11:39:40.072Z,4632
2016-05-21T11:40:40.090Z,4716
2016-05-21T11:41:39.999Z,4860
2016-05-21T11:42:40.001Z,4780
2016-05-21T11:43:40.177Z,4624
2016-05-21T11:44:40.210Z,4648
2016-05-21T11:45:40.073Z,4380
2016-05-21T11:46:40.107Z,5012
2016-05-21T11:47:40.297Z,4664
2016-05-21T11:48:40.190Z,4724
2016-05-21T11:49:40.349Z,4596
2016-05-21T11:50:40.367Z,4224
2016-05-21T11:51:40.417Z,3996
2016-05-21T11:52:40.279Z,3916
2016-05-21T11:53:40.297Z,3812
2016-05-21T11:54:40.487Z,3984
2016-05-21T11:55:40.522Z,3592
2016-05-21T11:56:40.337Z,3448
2016-05-21T11:57:40.573Z,3292
2016-05-21T11:58:40.451Z,3904
2016-05-21T11:59:40.625Z,3800
2016-05-21T12:00:40.519Z,4112
2016-05-21T12:01:40.521Z,3452
2016-05-21T12:02:40.556Z,3396
2016-05-21T12:03:40.575Z,3568
2016-05-21T12:04:40.764Z,4200
2016-05-21T12:05:40.782Z,4176
2016-05-21T12:06:40.832Z,4460
2016-05-21T12:07:40.866Z,4472
2016-05-21T12:08:40.885Z,4248
2016-05-21T12:09:40.903Z,4004
2016-05-21T12:10:40.937Z,3768
2016-05-21T12:11:40.830Z,3716
2016-05-21T12:12:40.988Z,4204
2016-05-21T12:13:41.023Z,4280
2016-05-21T12:14:41.041Z,4404
2016-05-21T12:15:40.919Z,3888
2016-05-21T12:16:40.953Z,3840
2016-05-21T12:17:41.143Z,3540
2016-05-21T12:18:40.990Z,3280
2016-05-21T12:19:41.179Z,3152
2016-05-21T12:20:41.057Z,2956
2016-05-21T12:21:41.232Z,2124
2016-05-21T12:22:41.109Z,2764
2016-05-21T12:23:41.143Z,2924
2016-05-21T12:24:41.318Z,3120
2016-05-21T12:25:41.352Z,3212
2016-05-21T12:26:41.448Z,3168
2016-05-21T12:27:41.420Z,3068
2016-05-21T12:28:41.281Z,2888
2016-05-21T12:29:41.316Z,2756
2016-05-21T12:30:41.334Z,2696
2016-05-21T12:31:41.353Z,2928
2016-05-21T12:32:41.543Z,2348
2016-05-21T12:33:41.592Z,2104
2016-05-21T12:34:41.595Z,2816
2016-05-21T12:35:41.472Z,3324
2016-05-21T12:36:41.663Z,2940
2016-05-21T12:37:41.696Z,2660
2016-05-21T12:38:41.731Z,2564
2016-05-21T12:39:41.593Z,2396
2016-05-21T12:40:41.610Z,3164
2016-05-21T12:41:42.474Z,3256
2016-05-21T12:42:41.663Z,3100
2016-05-21T12:43:41.854Z,2812
2016-05-21T12:44:41.888Z,2600
2016-05-21T12:45:41.906Z,2524
2016-05-21T12:46:41.799Z,2268
2016-05-21T12:47:41.973Z,2136
2016-05-21T12:48:41.992Z,2176
2016-05-21T12:49:41.870Z,2864
2016-05-21T12:50:42.045Z,3192
2016-05-21T12:51:42.079Z,3324
2016-05-21T12:52:42.112Z,3316
2016-05-21T12:53:42.131Z,3176
2016-05-21T12:54:42.164Z,3060
2016-05-21T12:55:42.183Z,3060
2016-05-21T12:56:42.342Z,2516
2016-05-21T12:57:42.094Z,2960
2016-05-21T12:58:42.284Z,2852
2016-05-21T12:59:42.147Z,3008
2016-05-21T13:00:42.165Z,3028
2016-05-21T13:01:42.199Z,2692
2016-05-21T13:02:42.217Z,2644
2016-05-21T13:03:42.408Z,3156
2016-05-21T13:04:42.269Z,3260
2016-05-21T13:05:42.303Z,3448
2016-05-21T13:06:42.493Z,2872
2016-05-21T13:07:42.527Z,2860
2016-05-21T13:08:42.546Z,2976
2016-05-21T13:09:42.580Z,2964
2016-05-21T13:10:42.614Z,3320
2016-05-21T13:11:42.491Z,3356
2016-05-21T13:12:42.650Z,3344
2016-05-21T13:13:42.684Z,2728
2016-05-21T13:14:42.703Z,3456
2016-05-21T13:15:42.751Z,3468
2016-05-21T13:16:42.770Z,3264
2016-05-21T13:17:42.648Z,3268
2016-05-21T13:18:42.823Z,3116
2016-05-21T13:19:42.857Z,3304
2016-05-21T13:20:42.875Z,3232
2016-05-21T13:21:42.909Z,3500
2016-05-21T13:22:42.927Z,2800
2016-05-21T13:23:42.820Z,2636
2016-05-21T13:24:43.026Z,2496
2016-05-21T13:25:43.029Z,3184
2016-05-21T13:26:43.062Z,3468
2016-05-21T13:27:43.081Z,3696
2016-05-21T13:28:43.100Z,3848
2016-05-21T13:29:43.134Z,3796
2016-05-21T13:30:43.153Z,3636
2016-05-21T13:31:43.030Z,3632
2016-05-21T13:32:43.219Z,3120
2016-05-21T13:33:43.238Z,3260
2016-05-21T13:34:43.272Z,3956
2016-05-21T13:35:43.134Z,3836
2016-05-21T13:36:43.340Z,3656
2016-05-21T13:37:43.358Z,2708
2016-05-21T13:38:43.220Z,2928
2016-05-21T13:39:43.410Z,3208